sensor_id;sensor_type;location;lat;lon;timestamp;P1;durP1;ratioP1;P2;durP2;ratioP2
36931;SDS011;22847;42.654;23.370;2022-12-18T00:01:29;6.80;;;4.75;;
36931;SDS011;22847;42.654;23.370;2022-12-18T00:03:57;7.55;;;4.65;;
36931;SDS011;22847;42.654;23.370;2022-12-18T00:06:26;6.82;;;4.13;;
36931;SDS011;22847;42.654;23.370;2022-12-18T00:08:54;6.20;;;4.25;;
36931;SDS011;22847;42.654;23.370;2022-12-18T00:11:22;7.40;;;4.35;;
36931;SDS011;22847;42.654;23.370;2022-12-18T00:13:49;7.47;;;4.85;;
36931;SDS011;22847;42.654;23.370;2022-12-18T00:16:16;6.63;;;4.45;;
36931;SDS011;22847;42.654;23.370;2022-12-18T00:18:46;8.02;;;4.90;;
36931;SDS011;22847;42.654;23.370;2022-12-18T00:21:12;6.60;;;4.55;;
36931;SDS011;22847;42.654;23.370;2022-12-18T00:23:39;8.02;;;4.82;;
36931;SDS011;22847;42.654;23.370;2022-12-18T00:26:07;7.32;;;4.95;;
36931;SDS011;22847;42.654;23.370;2022-12-18T00:28:35;8.80;;;5.13;;
36931;SDS011;22847;42.654;23.370;2022-12-18T00:31:05;7.57;;;4.95;;
36931;SDS011;22847;42.654;23.370;2022-12-18T00:33:33;8.30;;;5.45;;
36931;SDS011;22847;42.654;23.370;2022-12-18T00:36:02;7.75;;;5.20;;
36931;SDS011;22847;42.654;23.370;2022-12-18T00:38:34;13.75;;;5.20;;
36931;SDS011;22847;42.654;23.370;2022-12-18T00:41:00;9.25;;;5.35;;
36931;SDS011;22847;42.654;23.370;2022-12-18T00:43:26;7.93;;;4.95;;
36931;SDS011;22847;42.654;23.370;2022-12-18T00:45:51;9.32;;;5.43;;
36931;SDS011;22847;42.654;23.370;2022-12-18T00:48:17;8.70;;;5.22;;
36931;SDS011;22847;42.654;23.370;2022-12-18T00:50:42;9.38;;;5.32;;
36931;SDS011;22847;42.654;23.370;2022-12-18T00:53:11;8.93;;;5.28;;
36931;SDS011;22847;42.654;23.370;2022-12-18T00:55:37;9.30;;;5.32;;
36931;SDS011;22847;42.654;23.370;2022-12-18T00:58:04;10.15;;;5.63;;
36931;SDS011;22847;42.654;23.370;2022-12-18T01:00:29;8.65;;;5.72;;
36931;SDS011;22847;42.654;23.370;2022-12-18T01:02:55;9.55;;;6.15;;
36931;SDS011;22847;42.654;23.370;2022-12-18T01:05:20;11.27;;;5.97;;
36931;SDS011;22847;42.654;23.370;2022-12-18T01:07:45;11.93;;;6.40;;
36931;SDS011;22847;42.654;23.370;2022-12-18T01:10:11;11.63;;;7.00;;
36931;SDS011;22847;42.654;23.370;2022-12-18T01:12:38;10.15;;;6.40;;
36931;SDS011;22847;42.654;23.370;2022-12-18T01:15:04;12.75;;;6.38;;
36931;SDS011;22847;42.654;23.370;2022-12-18T01:17:31;11.77;;;6.03;;
36931;SDS011;22847;42.654;23.370;2022-12-18T01:19:57;11.07;;;6.78;;
36931;SDS011;22847;42.654;23.370;2022-12-18T01:22:23;9.05;;;6.00;;
36931;SDS011;22847;42.654;23.370;2022-12-18T01:24:48;9.00;;;5.60;;
36931;SDS011;22847;42.654;23.370;2022-12-18T01:27:13;11.00;;;6.03;;
36931;SDS011;22847;42.654;23.370;2022-12-18T01:29:39;9.15;;;5.93;;
36931;SDS011;22847;42.654;23.370;2022-12-18T01:32:04;10.60;;;5.85;;
36931;SDS011;22847;42.654;23.370;2022-12-18T01:34:30;14.27;;;6.28;;
36931;SDS011;22847;42.654;23.370;2022-12-18T01:36:55;9.15;;;5.53;;
36931;SDS011;22847;42.654;23.370;2022-12-18T01:39:21;8.43;;;5.97;;
36931;SDS011;22847;42.654;23.370;2022-12-18T01:41:47;10.27;;;6.05;;
36931;SDS011;22847;42.654;23.370;2022-12-18T01:47:20;12.55;;;6.63;;
36931;SDS011;22847;42.654;23.370;2022-12-18T01:49:46;11.75;;;7.20;;
36931;SDS011;22847;42.654;23.370;2022-12-18T01:52:11;11.30;;;7.05;;
36931;SDS011;22847;42.654;23.370;2022-12-18T01:54:37;13.50;;;7.07;;
36931;SDS011;22847;42.654;23.370;2022-12-18T01:57:02;12.15;;;7.30;;
36931;SDS011;22847;42.654;23.370;2022-12-18T01:59:28;9.88;;;6.50;;
36931;SDS011;22847;42.654;23.370;2022-12-18T02:01:56;11.85;;;6.40;;
36931;SDS011;22847;42.654;23.370;2022-12-18T02:04:22;11.77;;;6.60;;
36931;SDS011;22847;42.654;23.370;2022-12-18T02:06:51;11.00;;;6.15;;
36931;SDS011;22847;42.654;23.370;2022-12-18T02:09:31;10.82;;;6.82;;
36931;SDS011;22847;42.654;23.370;2022-12-18T02:12:23;11.82;;;6.40;;
36931;SDS011;22847;42.654;23.370;2022-12-18T02:28:28;10.95;;;6.78;;
36931;SDS011;22847;42.654;23.370;2022-12-18T02:30:59;10.77;;;6.25;;
36931;SDS011;22847;42.654;23.370;2022-12-18T02:33:28;9.35;;;6.10;;
36931;SDS011;22847;42.654;23.370;2022-12-18T02:35:55;10.93;;;6.70;;
36931;SDS011;22847;42.654;23.370;2022-12-18T02:38:23;10.60;;;6.40;;
36931;SDS011;22847;42.654;23.370;2022-12-18T02:40:50;10.77;;;6.63;;
36931;SDS011;22847;42.654;23.370;2022-12-18T02:43:18;9.88;;;6.38;;
36931;SDS011;22847;42.654;23.370;2022-12-18T02:45:47;8.70;;;5.80;;
36931;SDS011;22847;42.654;23.370;2022-12-18T02:48:19;9.15;;;5.43;;
36931;SDS011;22847;42.654;23.370;2022-12-18T02:53:58;13.65;;;5.68;;
36931;SDS011;22847;42.654;23.370;2022-12-18T02:56:38;10.00;;;5.75;;
36931;SDS011;22847;42.654;23.370;2022-12-18T02:59:13;10.23;;;5.82;;
36931;SDS011;22847;42.654;23.370;2022-12-18T03:04:26;10.60;;;6.50;;
36931;SDS011;22847;42.654;23.370;2022-12-18T03:06:54;11.35;;;6.47;;
36931;SDS011;22847;42.654;23.370;2022-12-18T03:09:32;11.73;;;6.75;;
36931;SDS011;22847;42.654;23.370;2022-12-18T03:12:05;11.65;;;6.15;;
36931;SDS011;22847;42.654;23.370;2022-12-18T03:14:58;10.38;;;6.50;;
36931;SDS011;22847;42.654;23.370;2022-12-18T03:17:30;11.65;;;7.03;;
36931;SDS011;22847;42.654;23.370;2022-12-18T03:19:58;11.20;;;6.82;;
36931;SDS011;22847;42.654;23.370;2022-12-18T03:22:30;9.88;;;6.22;;
36931;SDS011;22847;42.654;23.370;2022-12-18T03:24:58;13.07;;;6.57;;
36931;SDS011;22847;42.654;23.370;2022-12-18T03:27:28;12.10;;;6.55;;
36931;SDS011;22847;42.654;23.370;2022-12-18T03:30:01;11.20;;;6.30;;
36931;SDS011;22847;42.654;23.370;2022-12-18T03:32:33;11.40;;;6.05;;
36931;SDS011;22847;42.654;23.370;2022-12-18T03:35:05;11.20;;;6.50;;
36931;SDS011;22847;42.654;23.370;2022-12-18T03:37:34;11.32;;;5.88;;
36931;SDS011;22847;42.654;23.370;2022-12-18T03:40:00;9.60;;;6.20;;
36931;SDS011;22847;42.654;23.370;2022-12-18T03:42:27;10.90;;;6.07;;
36931;SDS011;22847;42.654;23.370;2022-12-18T03:44:59;9.85;;;6.05;;
36931;SDS011;22847;42.654;23.370;2022-12-18T03:47:33;10.45;;;6.05;;
36931;SDS011;22847;42.654;23.370;2022-12-18T03:53:00;12.55;;;6.38;;
36931;SDS011;22847;42.654;23.370;2022-12-18T03:55:34;9.90;;;6.13;;
36931;SDS011;22847;42.654;23.370;2022-12-18T03:58:01;9.90;;;6.55;;
36931;SDS011;22847;42.654;23.370;2022-12-18T04:00:29;10.48;;;6.40;;
36931;SDS011;22847;42.654;23.370;2022-12-18T04:02:56;10.50;;;6.20;;
36931;SDS011;22847;42.654;23.370;2022-12-18T04:05:25;10.25;;;6.28;;
36931;SDS011;22847;42.654;23.370;2022-12-18T04:07:52;12.00;;;6.88;;
36931;SDS011;22847;42.654;23.370;2022-12-18T04:10:19;12.45;;;6.57;;
36931;SDS011;22847;42.654;23.370;2022-12-18T04:12:44;12.45;;;6.55;;
36931;SDS011;22847;42.654;23.370;2022-12-18T04:15:10;10.25;;;6.57;;
36931;SDS011;22847;42.654;23.370;2022-12-18T04:17:38;11.30;;;7.57;;
36931;SDS011;22847;42.654;23.370;2022-12-18T04:20:07;10.77;;;6.07;;
36931;SDS011;22847;42.654;23.370;2022-12-18T04:22:33;10.75;;;6.45;;
36931;SDS011;22847;42.654;23.370;2022-12-18T04:24:58;15.43;;;6.85;;
36931;SDS011;22847;42.654;23.370;2022-12-18T04:27:24;12.10;;;6.50;;
36931;SDS011;22847;42.654;23.370;2022-12-18T04:29:49;10.70;;;6.70;;
36931;SDS011;22847;42.654;23.370;2022-12-18T04:32:15;10.45;;;6.05;;
36931;SDS011;22847;42.654;23.370;2022-12-18T04:34:40;12.15;;;7.07;;
36931;SDS011;22847;42.654;23.370;2022-12-18T04:37:05;11.20;;;6.63;;
36931;SDS011;22847;42.654;23.370;2022-12-18T04:39:31;12.80;;;6.95;;
36931;SDS011;22847;42.654;23.370;2022-12-18T04:41:59;12.25;;;7.18;;
36931;SDS011;22847;42.654;23.370;2022-12-18T04:44:25;11.98;;;7.45;;
36931;SDS011;22847;42.654;23.370;2022-12-18T04:46:50;11.43;;;6.95;;
36931;SDS011;22847;42.654;23.370;2022-12-18T04:49:15;11.93;;;7.10;;
36931;SDS011;22847;42.654;23.370;2022-12-18T04:51:41;13.80;;;8.38;;
36931;SDS011;22847;42.654;23.370;2022-12-18T04:54:06;15.10;;;7.85;;
36931;SDS011;22847;42.654;23.370;2022-12-18T04:56:32;13.13;;;7.65;;
36931;SDS011;22847;42.654;23.370;2022-12-18T04:58:57;18.15;;;8.30;;
36931;SDS011;22847;42.654;23.370;2022-12-18T05:01:23;16.80;;;8.85;;
36931;SDS011;22847;42.654;23.370;2022-12-18T05:03:48;13.48;;;7.45;;
36931;SDS011;22847;42.654;23.370;2022-12-18T05:06:14;18.33;;;8.35;;
36931;SDS011;22847;42.654;23.370;2022-12-18T05:08:39;16.17;;;8.90;;
36931;SDS011;22847;42.654;23.370;2022-12-18T05:11:06;19.48;;;9.50;;
36931;SDS011;22847;42.654;23.370;2022-12-18T05:13:34;16.73;;;8.60;;
36931;SDS011;22847;42.654;23.370;2022-12-18T05:16:00;15.18;;;8.73;;
36931;SDS011;22847;42.654;23.370;2022-12-18T05:18:25;16.90;;;8.60;;
36931;SDS011;22847;42.654;23.370;2022-12-18T05:20:52;14.82;;;8.65;;
36931;SDS011;22847;42.654;23.370;2022-12-18T05:23:18;13.75;;;8.45;;
36931;SDS011;22847;42.654;23.370;2022-12-18T05:25:54;17.48;;;9.73;;
36931;SDS011;22847;42.654;23.370;2022-12-18T05:28:21;15.82;;;8.82;;
36931;SDS011;22847;42.654;23.370;2022-12-18T05:30:49;14.35;;;8.88;;
36931;SDS011;22847;42.654;23.370;2022-12-18T05:33:16;18.13;;;9.40;;
36931;SDS011;22847;42.654;23.370;2022-12-18T05:35:42;16.00;;;9.40;;
36931;SDS011;22847;42.654;23.370;2022-12-18T05:38:08;19.40;;;9.63;;
36931;SDS011;22847;42.654;23.370;2022-12-18T05:40:33;23.38;;;9.55;;
36931;SDS011;22847;42.654;23.370;2022-12-18T05:42:58;18.15;;;8.63;;
36931;SDS011;22847;42.654;23.370;2022-12-18T05:45:24;17.48;;;9.82;;
36931;SDS011;22847;42.654;23.370;2022-12-18T05:47:49;17.55;;;9.57;;
36931;SDS011;22847;42.654;23.370;2022-12-18T05:50:14;16.65;;;9.73;;
36931;SDS011;22847;42.654;23.370;2022-12-18T05:52:40;17.45;;;9.77;;
36931;SDS011;22847;42.654;23.370;2022-12-18T05:55:05;16.35;;;9.57;;
36931;SDS011;22847;42.654;23.370;2022-12-18T05:57:31;21.67;;;10.10;;
36931;SDS011;22847;42.654;23.370;2022-12-18T05:59:56;18.60;;;9.82;;
36931;SDS011;22847;42.654;23.370;2022-12-18T06:02:22;20.13;;;9.18;;
36931;SDS011;22847;42.654;23.370;2022-12-18T06:04:47;20.13;;;10.43;;
36931;SDS011;22847;42.654;23.370;2022-12-18T06:07:13;18.90;;;9.48;;
36931;SDS011;22847;42.654;23.370;2022-12-18T06:09:39;21.23;;;10.18;;
36931;SDS011;22847;42.654;23.370;2022-12-18T06:12:04;17.63;;;9.80;;
36931;SDS011;22847;42.654;23.370;2022-12-18T06:14:30;17.27;;;9.63;;
36931;SDS011;22847;42.654;23.370;2022-12-18T06:16:55;19.17;;;10.20;;
36931;SDS011;22847;42.654;23.370;2022-12-18T06:19:20;20.05;;;10.23;;
36931;SDS011;22847;42.654;23.370;2022-12-18T06:21:46;18.85;;;10.25;;
36931;SDS011;22847;42.654;23.370;2022-12-18T06:24:12;22.50;;;11.05;;
36931;SDS011;22847;42.654;23.370;2022-12-18T06:26:38;25.02;;;12.15;;
36931;SDS011;22847;42.654;23.370;2022-12-18T06:29:04;20.63;;;11.27;;
36931;SDS011;22847;42.654;23.370;2022-12-18T06:31:29;18.52;;;10.27;;
36931;SDS011;22847;42.654;23.370;2022-12-18T06:33:55;21.88;;;11.07;;
36931;SDS011;22847;42.654;23.370;2022-12-18T06:36:20;21.00;;;10.70;;
36931;SDS011;22847;42.654;23.370;2022-12-18T06:38:46;26.10;;;10.88;;
36931;SDS011;22847;42.654;23.370;2022-12-18T06:41:19;21.73;;;11.30;;
36931;SDS011;22847;42.654;23.370;2022-12-18T06:43:45;20.83;;;11.48;;
36931;SDS011;22847;42.654;23.370;2022-12-18T06:46:11;24.67;;;11.23;;
36931;SDS011;22847;42.654;23.370;2022-12-18T06:48:37;23.33;;;12.60;;
36931;SDS011;22847;42.654;23.370;2022-12-18T06:51:03;26.00;;;12.57;;
36931;SDS011;22847;42.654;23.370;2022-12-18T06:53:29;25.33;;;12.48;;
36931;SDS011;22847;42.654;23.370;2022-12-18T06:56:01;26.33;;;13.15;;
36931;SDS011;22847;42.654;23.370;2022-12-18T06:58:46;21.95;;;12.10;;
36931;SDS011;22847;42.654;23.370;2022-12-18T07:01:12;32.10;;;14.05;;
36931;SDS011;22847;42.654;23.370;2022-12-18T07:03:38;22.67;;;12.20;;
36931;SDS011;22847;42.654;23.370;2022-12-18T07:06:05;25.08;;;12.40;;
36931;SDS011;22847;42.654;23.370;2022-12-18T07:08:31;23.77;;;12.38;;
36931;SDS011;22847;42.654;23.370;2022-12-18T07:10:57;21.73;;;11.50;;
36931;SDS011;22847;42.654;23.370;2022-12-18T07:13:22;18.67;;;11.02;;
36931;SDS011;22847;42.654;23.370;2022-12-18T07:15:48;20.83;;;11.05;;
36931;SDS011;22847;42.654;23.370;2022-12-18T07:18:13;21.73;;;11.75;;
36931;SDS011;22847;42.654;23.370;2022-12-18T07:20:38;25.45;;;12.30;;
36931;SDS011;22847;42.654;23.370;2022-12-18T07:23:04;20.73;;;11.75;;
36931;SDS011;22847;42.654;23.370;2022-12-18T07:25:30;22.77;;;12.68;;
36931;SDS011;22847;42.654;23.370;2022-12-18T07:27:59;20.60;;;10.45;;
36931;SDS011;22847;42.654;23.370;2022-12-18T07:30:24;20.42;;;10.93;;
36931;SDS011;22847;42.654;23.370;2022-12-18T07:32:50;22.42;;;12.43;;
36931;SDS011;22847;42.654;23.370;2022-12-18T07:35:15;24.55;;;11.60;;
36931;SDS011;22847;42.654;23.370;2022-12-18T07:37:40;21.63;;;11.52;;
36931;SDS011;22847;42.654;23.370;2022-12-18T07:40:06;23.30;;;12.25;;
36931;SDS011;22847;42.654;23.370;2022-12-18T07:42:32;28.55;;;12.38;;
36931;SDS011;22847;42.654;23.370;2022-12-18T07:44:58;26.30;;;11.90;;
36931;SDS011;22847;42.654;23.370;2022-12-18T07:47:25;23.08;;;11.93;;
36931;SDS011;22847;42.654;23.370;2022-12-18T07:49:50;28.85;;;13.07;;
36931;SDS011;22847;42.654;23.370;2022-12-18T07:52:16;24.58;;;11.88;;
36931;SDS011;22847;42.654;23.370;2022-12-18T07:54:41;24.33;;;13.00;;
36931;SDS011;22847;42.654;23.370;2022-12-18T07:57:07;26.10;;;13.45;;
36931;SDS011;22847;42.654;23.370;2022-12-18T07:59:33;31.70;;;14.45;;
36931;SDS011;22847;42.654;23.370;2022-12-18T08:01:58;34.90;;;18.38;;
36931;SDS011;22847;42.654;23.370;2022-12-18T08:04:24;32.15;;;14.50;;
36931;SDS011;22847;42.654;23.370;2022-12-18T08:06:50;30.17;;;14.80;;
36931;SDS011;22847;42.654;23.370;2022-12-18T08:09:16;27.13;;;14.50;;
36931;SDS011;22847;42.654;23.370;2022-12-18T08:11:41;31.92;;;15.77;;
36931;SDS011;22847;42.654;23.370;2022-12-18T08:14:07;28.60;;;14.68;;
36931;SDS011;22847;42.654;23.370;2022-12-18T08:16:32;32.50;;;14.27;;
36931;SDS011;22847;42.654;23.370;2022-12-18T08:18:58;32.03;;;15.27;;
36931;SDS011;22847;42.654;23.370;2022-12-18T08:21:24;30.58;;;14.43;;
36931;SDS011;22847;42.654;23.370;2022-12-18T08:23:52;28.33;;;15.50;;
36931;SDS011;22847;42.654;23.370;2022-12-18T08:26:19;26.13;;;14.45;;
36931;SDS011;22847;42.654;23.370;2022-12-18T08:28:45;33.05;;;16.65;;
36931;SDS011;22847;42.654;23.370;2022-12-18T08:31:11;30.50;;;15.48;;
36931;SDS011;22847;42.654;23.370;2022-12-18T08:33:37;38.13;;;15.88;;
36931;SDS011;22847;42.654;23.370;2022-12-18T08:36:04;29.88;;;14.60;;
36931;SDS011;22847;42.654;23.370;2022-12-18T08:38:29;33.20;;;16.13;;
36931;SDS011;22847;42.654;23.370;2022-12-18T08:40:59;30.00;;;14.98;;
36931;SDS011;22847;42.654;23.370;2022-12-18T08:43:25;34.70;;;17.90;;
36931;SDS011;22847;42.654;23.370;2022-12-18T08:46:10;33.40;;;15.95;;
36931;SDS011;22847;42.654;23.370;2022-12-18T08:48:36;32.85;;;15.70;;
36931;SDS011;22847;42.654;23.370;2022-12-18T08:51:02;32.13;;;14.52;;
36931;SDS011;22847;42.654;23.370;2022-12-18T08:53:27;31.17;;;14.60;;
36931;SDS011;22847;42.654;23.370;2022-12-18T08:55:53;30.67;;;14.52;;
36931;SDS011;22847;42.654;23.370;2022-12-18T08:58:21;36.00;;;15.63;;
36931;SDS011;22847;42.654;23.370;2022-12-18T09:00:46;31.02;;;14.75;;
36931;SDS011;22847;42.654;23.370;2022-12-18T09:03:15;34.05;;;15.57;;
36931;SDS011;22847;42.654;23.370;2022-12-18T09:05:42;30.17;;;14.65;;
36931;SDS011;22847;42.654;23.370;2022-12-18T09:08:08;29.30;;;14.15;;
36931;SDS011;22847;42.654;23.370;2022-12-18T09:10:34;30.92;;;14.95;;
36931;SDS011;22847;42.654;23.370;2022-12-18T09:13:06;30.60;;;15.02;;
36931;SDS011;22847;42.654;23.370;2022-12-18T09:15:31;33.38;;;15.95;;
36931;SDS011;22847;42.654;23.370;2022-12-18T09:17:57;29.67;;;15.07;;
36931;SDS011;22847;42.654;23.370;2022-12-18T09:20:22;31.35;;;13.82;;
36931;SDS011;22847;42.654;23.370;2022-12-18T09:22:47;33.05;;;15.48;;
36931;SDS011;22847;42.654;23.370;2022-12-18T09:25:13;32.25;;;14.07;;
36931;SDS011;22847;42.654;23.370;2022-12-18T09:27:38;32.20;;;15.65;;
36931;SDS011;22847;42.654;23.370;2022-12-18T09:30:04;34.10;;;15.45;;
36931;SDS011;22847;42.654;23.370;2022-12-18T09:32:30;32.30;;;15.18;;
36931;SDS011;22847;42.654;23.370;2022-12-18T09:34:55;30.40;;;14.60;;
36931;SDS011;22847;42.654;23.370;2022-12-18T09:37:22;29.15;;;14.57;;
36931;SDS011;22847;42.654;23.370;2022-12-18T09:39:48;26.48;;;14.38;;
36931;SDS011;22847;42.654;23.370;2022-12-18T09:42:20;32.13;;;13.75;;
36931;SDS011;22847;42.654;23.370;2022-12-18T09:44:55;29.58;;;13.35;;
36931;SDS011;22847;42.654;23.370;2022-12-18T09:47:25;28.45;;;13.63;;
36931;SDS011;22847;42.654;23.370;2022-12-18T09:52:45;26.23;;;13.10;;
36931;SDS011;22847;42.654;23.370;2022-12-18T09:55:26;31.80;;;13.98;;
36931;SDS011;22847;42.654;23.370;2022-12-18T09:58:00;27.65;;;13.45;;
36931;SDS011;22847;42.654;23.370;2022-12-18T10:00:48;25.42;;;13.48;;
36931;SDS011;22847;42.654;23.370;2022-12-18T10:03:16;28.88;;;13.88;;
36931;SDS011;22847;42.654;23.370;2022-12-18T10:11:35;26.63;;;13.07;;
36931;SDS011;22847;42.654;23.370;2022-12-18T10:19:48;27.83;;;13.02;;
36931;SDS011;22847;42.654;23.370;2022-12-18T10:27:40;27.67;;;13.98;;
36931;SDS011;22847;42.654;23.370;2022-12-18T10:30:12;35.17;;;13.35;;
36931;SDS011;22847;42.654;23.370;2022-12-18T10:32:42;29.83;;;14.15;;
36931;SDS011;22847;42.654;23.370;2022-12-18T10:35:11;26.92;;;13.20;;
36931;SDS011;22847;42.654;23.370;2022-12-18T10:40:28;30.35;;;14.55;;
36931;SDS011;22847;42.654;23.370;2022-12-18T10:43:03;32.00;;;13.57;;
36931;SDS011;22847;42.654;23.370;2022-12-18T10:45:31;26.80;;;13.43;;
36931;SDS011;22847;42.654;23.370;2022-12-18T10:47:56;26.52;;;14.20;;
36931;SDS011;22847;42.654;23.370;2022-12-18T10:52:58;29.60;;;13.85;;
36931;SDS011;22847;42.654;23.370;2022-12-18T10:55:44;26.00;;;13.25;;
36931;SDS011;22847;42.654;23.370;2022-12-18T11:01:05;28.67;;;14.50;;
36931;SDS011;22847;42.654;23.370;2022-12-18T11:06:02;30.70;;;13.18;;
36931;SDS011;22847;42.654;23.370;2022-12-18T11:08:29;31.83;;;15.05;;
36931;SDS011;22847;42.654;23.370;2022-12-18T11:10:55;24.77;;;13.68;;
36931;SDS011;22847;42.654;23.370;2022-12-18T11:13:21;26.95;;;14.02;;
36931;SDS011;22847;42.654;23.370;2022-12-18T11:15:48;27.27;;;14.15;;
36931;SDS011;22847;42.654;23.370;2022-12-18T11:18:18;28.02;;;14.00;;
36931;SDS011;22847;42.654;23.370;2022-12-18T11:20:50;27.42;;;13.13;;
36931;SDS011;22847;42.654;23.370;2022-12-18T11:23:22;30.15;;;14.20;;
36931;SDS011;22847;42.654;23.370;2022-12-18T11:25:59;32.90;;;13.98;;
36931;SDS011;22847;42.654;23.370;2022-12-18T11:28:46;26.83;;;13.00;;
36931;SDS011;22847;42.654;23.370;2022-12-18T11:34:09;24.88;;;13.20;;
36931;SDS011;22847;42.654;23.370;2022-12-18T11:36:41;26.75;;;11.88;;
36931;SDS011;22847;42.654;23.370;2022-12-18T11:41:58;27.50;;;13.00;;
36931;SDS011;22847;42.654;23.370;2022-12-18T11:44:57;26.25;;;11.65;;
36931;SDS011;22847;42.654;23.370;2022-12-18T11:47:44;29.90;;;13.48;;
36931;SDS011;22847;42.654;23.370;2022-12-18T11:50:46;28.00;;;12.95;;
36931;SDS011;22847;42.654;23.370;2022-12-18T11:53:02;25.13;;;12.43;;
36931;SDS011;22847;42.654;23.370;2022-12-18T11:55:49;26.50;;;13.55;;
36931;SDS011;22847;42.654;23.370;2022-12-18T12:01:50;26.33;;;11.68;;
36931;SDS011;22847;42.654;23.370;2022-12-18T12:06:58;24.38;;;11.45;;
36931;SDS011;22847;42.654;23.370;2022-12-18T12:20:14;27.33;;;12.60;;
36931;SDS011;22847;42.654;23.370;2022-12-18T12:22:51;30.73;;;13.75;;
36931;SDS011;22847;42.654;23.370;2022-12-18T12:25:21;27.38;;;13.52;;
36931;SDS011;22847;42.654;23.370;2022-12-18T12:31:28;26.13;;;13.93;;
36931;SDS011;22847;42.654;23.370;2022-12-18T12:39:13;29.23;;;13.00;;
36931;SDS011;22847;42.654;23.370;2022-12-18T12:41:42;25.48;;;13.07;;
36931;SDS011;22847;42.654;23.370;2022-12-18T12:44:40;31.77;;;14.60;;
36931;SDS011;22847;42.654;23.370;2022-12-18T12:47:14;28.33;;;14.60;;
36931;SDS011;22847;42.654;23.370;2022-12-18T12:49:46;29.10;;;13.60;;
36931;SDS011;22847;42.654;23.370;2022-12-18T12:52:55;29.05;;;14.05;;
36931;SDS011;22847;42.654;23.370;2022-12-18T12:55:43;31.73;;;14.20;;
36931;SDS011;22847;42.654;23.370;2022-12-18T13:01:22;28.23;;;13.82;;
36931;SDS011;22847;42.654;23.370;2022-12-18T13:06:58;29.92;;;14.20;;
36931;SDS011;22847;42.654;23.370;2022-12-18T13:13:14;30.00;;;13.90;;
36931;SDS011;22847;42.654;23.370;2022-12-18T13:15:41;30.08;;;14.27;;
36931;SDS011;22847;42.654;23.370;2022-12-18T13:23:26;32.72;;;14.40;;
36931;SDS011;22847;42.654;23.370;2022-12-18T13:25:57;33.47;;;15.68;;
36931;SDS011;22847;42.654;23.370;2022-12-18T13:28:49;31.52;;;14.98;;
36931;SDS011;22847;42.654;23.370;2022-12-18T13:31:12;27.38;;;13.48;;
36931;SDS011;22847;42.654;23.370;2022-12-18T13:36:40;31.90;;;14.27;;
36931;SDS011;22847;42.654;23.370;2022-12-18T13:39:20;30.10;;;14.07;;
36931;SDS011;22847;42.654;23.370;2022-12-18T13:41:49;29.88;;;14.85;;
36931;SDS011;22847;42.654;23.370;2022-12-18T13:46:46;31.50;;;13.55;;
36931;SDS011;22847;42.654;23.370;2022-12-18T13:51:46;35.33;;;14.73;;
36931;SDS011;22847;42.654;23.370;2022-12-18T13:56:43;27.52;;;13.73;;
36931;SDS011;22847;42.654;23.370;2022-12-18T14:04:29;30.45;;;14.13;;
36931;SDS011;22847;42.654;23.370;2022-12-18T14:07:06;27.73;;;13.38;;
36931;SDS011;22847;42.654;23.370;2022-12-18T14:09:37;29.05;;;14.10;;
36931;SDS011;22847;42.654;23.370;2022-12-18T14:12:12;27.10;;;14.18;;
36931;SDS011;22847;42.654;23.370;2022-12-18T14:15:06;29.67;;;14.15;;
36931;SDS011;22847;42.654;23.370;2022-12-18T14:17:57;27.83;;;13.00;;
36931;SDS011;22847;42.654;23.370;2022-12-18T14:20:25;28.02;;;14.40;;
36931;SDS011;22847;42.654;23.370;2022-12-18T14:22:56;30.38;;;14.45;;
36931;SDS011;22847;42.654;23.370;2022-12-18T14:25:23;26.75;;;13.55;;
36931;SDS011;22847;42.654;23.370;2022-12-18T14:30:35;26.75;;;13.32;;
36931;SDS011;22847;42.654;23.370;2022-12-18T14:35:34;23.13;;;11.73;;
36931;SDS011;22847;42.654;23.370;2022-12-18T14:40:36;24.20;;;12.05;;
36931;SDS011;22847;42.654;23.370;2022-12-18T14:43:01;35.35;;;16.65;;
36931;SDS011;22847;42.654;23.370;2022-12-18T14:45:41;27.75;;;12.93;;
36931;SDS011;22847;42.654;23.370;2022-12-18T14:48:18;24.90;;;12.55;;
36931;SDS011;22847;42.654;23.370;2022-12-18T14:50:53;28.02;;;12.85;;
36931;SDS011;22847;42.654;23.370;2022-12-18T14:53:28;25.98;;;12.52;;
36931;SDS011;22847;42.654;23.370;2022-12-18T14:55:56;26.73;;;12.82;;
36931;SDS011;22847;42.654;23.370;2022-12-18T14:58:22;23.65;;;11.60;;
36931;SDS011;22847;42.654;23.370;2022-12-18T15:00:47;25.25;;;11.88;;
36931;SDS011;22847;42.654;23.370;2022-12-18T15:03:14;25.52;;;12.10;;
36931;SDS011;22847;42.654;23.370;2022-12-18T15:05:44;24.90;;;11.98;;
36931;SDS011;22847;42.654;23.370;2022-12-18T15:08:30;26.58;;;12.50;;
36931;SDS011;22847;42.654;23.370;2022-12-18T15:11:01;23.92;;;11.93;;
36931;SDS011;22847;42.654;23.370;2022-12-18T15:13:27;21.88;;;11.90;;
36931;SDS011;22847;42.654;23.370;2022-12-18T15:15:53;24.60;;;12.60;;
36931;SDS011;22847;42.654;23.370;2022-12-18T15:18:21;25.15;;;12.30;;
36931;SDS011;22847;42.654;23.370;2022-12-18T15:20:55;25.33;;;12.65;;
36931;SDS011;22847;42.654;23.370;2022-12-18T15:26:10;24.00;;;11.73;;
36931;SDS011;22847;42.654;23.370;2022-12-18T15:31:31;24.77;;;11.80;;
36931;SDS011;22847;42.654;23.370;2022-12-18T15:36:34;24.35;;;12.90;;
36931;SDS011;22847;42.654;23.370;2022-12-18T15:39:03;25.67;;;13.27;;
36931;SDS011;22847;42.654;23.370;2022-12-18T15:41:30;29.90;;;13.02;;
36931;SDS011;22847;42.654;23.370;2022-12-18T15:43:57;27.48;;;13.18;;
36931;SDS011;22847;42.654;23.370;2022-12-18T15:46:23;26.45;;;12.57;;
36931;SDS011;22847;42.654;23.370;2022-12-18T15:48:51;24.10;;;11.73;;
36931;SDS011;22847;42.654;23.370;2022-12-18T15:51:19;27.92;;;12.57;;
36931;SDS011;22847;42.654;23.370;2022-12-18T15:53:51;26.30;;;12.88;;
36931;SDS011;22847;42.654;23.370;2022-12-18T15:56:19;27.77;;;13.05;;
36931;SDS011;22847;42.654;23.370;2022-12-18T16:01:33;26.40;;;12.25;;
36931;SDS011;22847;42.654;23.370;2022-12-18T16:03:59;27.70;;;13.15;;
36931;SDS011;22847;42.654;23.370;2022-12-18T16:06:24;27.70;;;13.65;;
36931;SDS011;22847;42.654;23.370;2022-12-18T16:08:49;25.92;;;12.10;;
36931;SDS011;22847;42.654;23.370;2022-12-18T16:11:25;31.27;;;13.55;;
36931;SDS011;22847;42.654;23.370;2022-12-18T16:14:13;27.60;;;12.30;;
36931;SDS011;22847;42.654;23.370;2022-12-18T16:16:46;26.20;;;13.02;;
36931;SDS011;22847;42.654;23.370;2022-12-18T16:19:13;28.20;;;13.10;;
36931;SDS011;22847;42.654;23.370;2022-12-18T16:21:39;28.52;;;14.20;;
36931;SDS011;22847;42.654;23.370;2022-12-18T16:24:04;29.40;;;13.95;;
36931;SDS011;22847;42.654;23.370;2022-12-18T16:26:33;31.83;;;14.55;;
36931;SDS011;22847;42.654;23.370;2022-12-18T16:28:59;26.95;;;13.88;;
36931;SDS011;22847;42.654;23.370;2022-12-18T16:31:24;30.13;;;13.05;;
36931;SDS011;22847;42.654;23.370;2022-12-18T16:33:49;26.58;;;12.50;;
36931;SDS011;22847;42.654;23.370;2022-12-18T16:36:35;28.20;;;13.23;;
36931;SDS011;22847;42.654;23.370;2022-12-18T16:39:03;29.83;;;13.23;;
36931;SDS011;22847;42.654;23.370;2022-12-18T16:41:29;25.48;;;12.27;;
36931;SDS011;22847;42.654;23.370;2022-12-18T16:43:57;26.52;;;12.27;;